Time;durP1;ratioP1;P1;durP2;ratioP2;P2;SDS_P1;SDS_P2;PMS_P1;PMS_P2;Temp;Humidity;BMP_temperature;BMP_pressure;BME280_temperature;BME280_humidity;BME280_pressure;Samples;Min_cycle;Max_cycle;Signal;HPM_P1;HPM_P2
2022/11/20 00:00:49;;;;;;;0.20;0.20;;;0.60;99.90;;;;;;5134407;27;20039;-73
2022/11/20 00:03:15;;;;;;;0.20;0.20;;;0.60;99.90;;;;;;5135653;27;20046;-73
2022/11/20 00:05:40;;;;;;;0.20;0.20;;;0.60;99.90;;;;;;5146962;27;20057;-73
2022/11/20 00:08:06;;;;;;;0.20;0.20;;;0.60;99.90;;;;;;5153045;27;20122;-70
2022/11/20 00:10:32;;;;;;;0.20;0.20;;;0.60;99.90;;;;;;5153455;27;20125;-71
2022/11/20 00:12:58;;;;;;;0.20;0.20;;;0.60;99.90;;;;;;5134428;27;20535;-71
2022/11/20 00:15:24;;;;;;;0.20;0.20;;;0.70;99.90;;;;;;5124104;27;20074;-71
2022/11/20 00:17:50;;;;;;;0.20;0.20;;;0.70;99.90;;;;;;5144256;27;20175;-72
2022/11/20 00:20:16;;;;;;;0.20;0.20;;;0.70;99.90;;;;;;5138792;27;20457;-72
2022/11/20 00:22:41;;;;;;;0.20;0.20;;;0.70;99.90;;;;;;5132515;27;20053;-71
2022/11/20 00:25:07;;;;;;;0.20;0.20;;;0.70;99.90;;;;;;5127047;27;20049;-71
2022/11/20 00:27:33;;;;;;;0.20;0.20;;;0.70;99.90;;;;;;5128000;27;20049;-72
2022/11/20 00:29:58;;;;;;;0.20;0.20;;;0.70;99.90;;;;;;5153904;27;20046;-71
2022/11/20 00:32:24;;;;;;;0.20;0.20;;;0.70;99.90;;;;;;5151139;27;20042;-74
2022/11/20 00:34:49;;;;;;;0.20;0.20;;;0.70;99.90;;;;;;5132914;27;20091;-72
2022/11/20 00:37:15;;;;;;;0.20;0.20;;;0.70;99.90;;;;;;5132337;27;20121;-72
2022/11/20 00:39:41;;;;;;;0.10;0.10;;;0.70;99.90;;;;;;5143819;27;20051;-72
2022/11/20 00:42:06;;;;;;;0.20;0.20;;;0.70;99.90;;;;;;5113695;27;20107;-72
2022/11/20 00:44:32;;;;;;;0.20;0.20;;;0.70;99.90;;;;;;5120929;27;20046;-72
2022/11/20 00:46:58;;;;;;;0.20;0.20;;;0.70;99.90;;;;;;5137001;27;20031;-72
2022/11/20 00:49:23;;;;;;;0.20;0.20;;;0.80;99.90;;;;;;5133202;27;20038;-72
2022/11/20 00:51:49;;;;;;;0.13;0.13;;;0.80;99.90;;;;;;5132547;27;20043;-72
2022/11/20 00:54:14;;;;;;;0.20;0.20;;;0.80;99.90;;;;;;5132965;27;20075;-72
2022/11/20 00:56:40;;;;;;;0.20;0.20;;;0.80;99.90;;;;;;5114696;27;20039;-72
2022/11/20 00:59:06;;;;;;;0.10;0.10;;;0.80;99.90;;;;;;5132173;27;20111;-72
2022/11/20 01:01:31;;;;;;;0.20;0.20;;;0.70;99.90;;;;;;5150552;27;20038;-71
2022/11/20 01:03:59;;;;;;;0.20;0.20;;;0.80;99.90;;;;;;5153452;27;20045;-72
2022/11/20 01:06:28;;;;;;;0.20;0.20;;;0.80;99.90;;;;;;5134303;27;20402;-72
2022/11/20 01:08:56;;;;;;;0.20;0.20;;;0.80;99.90;;;;;;5143481;27;20039;-71
2022/11/20 01:11:25;;;;;;;0.20;0.20;;;0.80;99.90;;;;;;5133740;27;20050;-71
2022/11/20 01:13:52;;;;;;;0.20;0.20;;;0.80;99.90;;;;;;5137634;27;20050;-72
2022/11/20 01:16:24;;;;;;;0.20;0.20;;;0.80;99.90;;;;;;5153566;27;20113;-73
2022/11/20 01:18:52;;;;;;;0.20;0.20;;;0.80;99.90;;;;;;5153154;27;20049;-73
2022/11/20 01:21:21;;;;;;;0.20;0.20;;;0.90;99.90;;;;;;5153272;27;20049;-73
2022/11/20 01:23:48;;;;;;;0.20;0.20;;;0.80;99.90;;;;;;5137287;27;20035;-72
2022/11/20 01:26:20;;;;;;;0.20;0.20;;;0.90;99.90;;;;;;5139004;27;20058;-71
2022/11/20 01:28:46;;;;;;;0.20;0.20;;;0.90;99.90;;;;;;5132724;27;20039;-71
2022/11/20 01:31:18;;;;;;;0.13;0.13;;;0.90;99.90;;;;;;5132837;27;20250;-71
2022/11/20 01:33:45;;;;;;;0.20;0.20;;;0.90;99.90;;;;;;5124707;27;20051;-71
2022/11/20 01:36:12;;;;;;;0.20;0.20;;;0.90;99.90;;;;;;5132640;27;20070;-71
2022/11/20 01:38:38;;;;;;;0.20;0.20;;;0.90;99.90;;;;;;5113978;27;20047;-71
2022/11/20 01:41:05;;;;;;;0.20;0.20;;;0.90;99.90;;;;;;5148078;27;20055;-71
2022/11/20 01:43:31;;;;;;;0.20;0.20;;;0.90;99.90;;;;;;5133265;27;20050;-71
2022/11/20 01:46:01;;;;;;;0.20;0.20;;;0.90;99.90;;;;;;5153161;27;20367;-72
2022/11/20 01:48:33;;;;;;;0.20;0.20;;;0.90;99.90;;;;;;5152275;27;20051;-73
2022/11/20 01:51:00;;;;;;;0.20;0.20;;;1.00;99.90;;;;;;5153291;27;20082;-71
2022/11/20 01:53:32;;;;;;;0.20;0.20;;;1.00;99.90;;;;;;5150991;27;20041;-72
2022/11/20 01:56:00;;;;;;;0.20;0.20;;;1.00;99.90;;;;;;5125891;27;20047;-71
2022/11/20 01:58:31;;;;;;;0.20;0.20;;;1.00;99.90;;;;;;5150913;27;20035;-71
2022/11/20 02:00:57;;;;;;;0.20;0.20;;;1.00;99.90;;;;;;5149567;27;20046;-71
2022/11/20 02:03:24;;;;;;;0.20;0.20;;;1.00;99.90;;;;;;5150392;27;20386;-71
2022/11/20 02:06:23;;;;;;;0.20;0.20;;;1.00;99.90;;;;;;5113990;27;20058;-71
2022/11/20 02:08:50;;;;;;;0.20;0.20;;;1.00;99.90;;;;;;5095898;27;20134;-72
2022/11/20 02:11:16;;;;;;;0.20;0.20;;;1.00;99.90;;;;;;5132233;27;20060;-71
2022/11/20 02:13:45;;;;;;;0.20;0.20;;;1.00;99.90;;;;;;5150161;27;20114;-71
2022/11/20 02:16:15;;;;;;;0.20;0.20;;;1.00;99.90;;;;;;5133140;27;20410;-71
2022/11/20 02:18:42;;;;;;;0.20;0.20;;;1.00;99.90;;;;;;5151608;27;20057;-72
2022/11/20 02:21:28;;;;;;;0.20;0.20;;;1.00;99.90;;;;;;5150488;27;20041;-71
2022/11/20 02:24:04;;;;;;;0.20;0.20;;;1.10;99.90;;;;;;5136383;27;20078;-72
2022/11/20 02:26:33;;;;;;;0.20;0.20;;;1.10;99.90;;;;;;5113724;27;20054;-72
2022/11/20 02:29:01;;;;;;;0.20;0.20;;;1.10;99.90;;;;;;5146958;27;20117;-72
2022/11/20 02:31:27;;;;;;;0.20;0.20;;;1.10;99.90;;;;;;5133848;27;20038;-71
2022/11/20 02:33:57;;;;;;;0.20;0.20;;;1.10;99.90;;;;;;5144962;27;20038;-71
2022/11/20 02:36:26;;;;;;;0.20;0.20;;;1.10;99.90;;;;;;5112790;27;20065;-71
2022/11/20 02:38:52;;;;;;;0.20;0.20;;;1.20;99.90;;;;;;5144647;27;20413;-71
2022/11/20 02:41:17;;;;;;;0.20;0.20;;;1.20;99.90;;;;;;5138354;27;20042;-71
2022/11/20 02:43:43;;;;;;;0.20;0.20;;;1.20;99.90;;;;;;5129656;27;20059;-71
2022/11/20 02:46:09;;;;;;;0.20;0.20;;;1.20;99.90;;;;;;5131043;27;20045;-72
2022/11/20 02:48:34;;;;;;;0.20;0.20;;;1.20;99.90;;;;;;5131369;27;20047;-72
2022/11/20 02:51:00;;;;;;;0.20;0.20;;;1.20;99.90;;;;;;5112098;27;20046;-72
2022/11/20 02:53:26;;;;;;;0.20;0.20;;;1.20;99.90;;;;;;5140011;27;20042;-71
2022/11/20 02:55:51;;;;;;;0.13;0.13;;;1.30;99.90;;;;;;5149892;27;20497;-72
2022/11/20 02:58:17;;;;;;;0.10;0.10;;;1.30;99.90;;;;;;5148344;27;20042;-71
2022/11/20 03:00:43;;;;;;;0.20;0.20;;;1.20;99.90;;;;;;5152273;27;20387;-72
2022/11/20 03:03:08;;;;;;;0.20;0.20;;;1.30;99.90;;;;;;5150217;27;20038;-71
2022/11/20 03:05:34;;;;;;;0.17;0.17;;;1.20;99.90;;;;;;5130590;28;20042;-71
2022/11/20 03:07:59;;;;;;;0.20;0.20;;;1.30;99.90;;;;;;5139257;27;20126;-72
2022/11/20 03:10:25;;;;;;;0.20;0.20;;;1.20;99.90;;;;;;5152320;27;20038;-72
2022/11/20 03:12:55;;;;;;;0.15;0.15;;;1.20;99.90;;;;;;5137812;27;20478;-72
2022/11/20 03:15:24;;;;;;;0.20;0.20;;;1.20;99.90;;;;;;5131173;27;20058;-72
2022/11/20 03:17:54;;;;;;;0.20;0.20;;;1.30;99.90;;;;;;5130439;27;20042;-71
2022/11/20 03:20:20;;;;;;;0.20;0.20;;;1.20;99.90;;;;;;5129840;27;20043;-71
2022/11/20 03:22:46;;;;;;;0.20;0.20;;;1.30;99.90;;;;;;5114468;27;20126;-72
2022/11/20 03:25:11;;;;;;;0.20;0.20;;;1.20;99.90;;;;;;5138999;27;20056;-72
2022/11/20 03:27:37;;;;;;;0.20;0.20;;;1.20;99.90;;;;;;5150449;27;20038;-72
2022/11/20 03:30:04;;;;;;;0.20;0.20;;;1.20;99.90;;;;;;5155414;27;20041;-72
2022/11/20 03:32:29;;;;;;;0.20;0.20;;;1.20;99.90;;;;;;5154811;27;20114;-72
2022/11/20 03:34:55;;;;;;;0.20;0.20;;;1.20;99.90;;;;;;5152970;27;20486;-71
2022/11/20 03:37:20;;;;;;;0.20;0.20;;;1.20;99.90;;;;;;5134786;27;20046;-72
2022/11/20 03:39:46;;;;;;;0.13;0.13;;;1.20;99.90;;;;;;5153245;27;20443;-71
2022/11/20 03:44:55;;;;;;;0.20;0.20;;;1.20;99.90;;;;;;5134813;27;20043;-71
2022/11/20 03:47:21;;;;;;;0.20;0.20;;;1.20;99.90;;;;;;5133804;27;20039;-72
2022/11/20 03:49:47;;;;;;;0.20;0.20;;;1.30;99.90;;;;;;5134936;27;20116;-71
2022/11/20 03:52:12;;;;;;;0.20;0.20;;;1.30;99.90;;;;;;5146359;27;20035;-72
2022/11/20 03:54:38;;;;;;;0.20;0.20;;;1.30;99.90;;;;;;5139674;27;20039;-71
2022/11/20 03:57:03;;;;;;;0.20;0.20;;;1.30;99.90;;;;;;5135134;27;20212;-71
2022/11/20 03:59:29;;;;;;;0.20;0.20;;;1.30;99.90;;;;;;5148653;27;20046;-72
2022/11/20 04:01:55;;;;;;;0.20;0.20;;;1.30;99.90;;;;;;5135725;27;20494;-72
2022/11/20 04:04:20;;;;;;;0.20;0.20;;;1.30;99.90;;;;;;5134014;27;20119;-72
2022/11/20 04:06:46;;;;;;;0.20;0.20;;;1.30;99.90;;;;;;5142408;27;20482;-72
2022/11/20 04:09:13;;;;;;;0.20;0.20;;;1.30;99.90;;;;;;5148264;27;20043;-71
2022/11/20 04:11:39;;;;;;;0.20;0.20;;;1.30;99.90;;;;;;5121394;27;20081;-71
2022/11/20 04:14:11;;;;;;;0.20;0.20;;;1.30;99.90;;;;;;5114703;27;20493;-72
2022/11/20 04:16:37;;;;;;;0.20;0.20;;;1.30;99.90;;;;;;5114807;27;20035;-71
2022/11/20 04:19:05;;;;;;;0.10;0.10;;;1.30;99.90;;;;;;5123856;27;20046;-72
2022/11/20 04:21:32;;;;;;;0.20;0.20;;;1.30;99.90;;;;;;5134805;27;20130;-71
2022/11/20 04:23:57;;;;;;;0.20;0.20;;;1.30;99.90;;;;;;5131361;27;20045;-72
2022/11/20 04:26:25;;;;;;;0.20;0.20;;;1.30;99.90;;;;;;5135641;27;20330;-72
2022/11/20 04:28:51;;;;;;;0.20;0.20;;;1.30;99.90;;;;;;5152657;27;20439;-72
2022/11/20 04:31:19;;;;;;;0.13;0.13;;;1.30;99.90;;;;;;5154460;27;20113;-72
2022/11/20 04:33:45;;;;;;;0.20;0.20;;;1.30;99.90;;;;;;5133598;27;20454;-71
2022/11/20 04:36:16;;;;;;;0.20;0.20;;;1.30;99.90;;;;;;5152085;27;20035;-72
2022/11/20 04:38:42;;;;;;;0.20;0.20;;;1.30;99.90;;;;;;5152919;27;20311;-72
2022/11/20 04:41:15;;;;;;;0.17;0.17;;;1.30;99.90;;;;;;5151159;27;20486;-72
2022/11/20 04:43:40;;;;;;;0.20;0.20;;;1.30;99.90;;;;;;5151887;27;20039;-72
2022/11/20 04:46:06;;;;;;;0.20;0.20;;;1.30;99.90;;;;;;5134194;27;20103;-72
2022/11/20 04:48:32;;;;;;;0.20;0.20;;;1.30;99.90;;;;;;5153955;27;20417;-72
2022/11/20 04:50:57;;;;;;;0.20;0.20;;;1.30;99.90;;;;;;5153221;27;20106;-72
2022/11/20 04:53:24;;;;;;;0.20;0.20;;;1.30;99.90;;;;;;5147322;27;20108;-72
2022/11/20 04:55:49;;;;;;;0.20;0.20;;;1.30;99.90;;;;;;5154502;27;20434;-72
2022/11/20 04:58:16;;;;;;;0.20;0.20;;;1.30;99.90;;;;;;5133798;27;20078;-72
2022/11/20 05:00:41;;;;;;;0.20;0.20;;;1.30;99.90;;;;;;5154151;27;20043;-72
2022/11/20 05:03:07;;;;;;;0.20;0.20;;;1.30;99.90;;;;;;5153547;27;20050;-72
2022/11/20 05:05:36;;;;;;;0.20;0.20;;;1.30;99.90;;;;;;5153250;27;20054;-72
2022/11/20 05:08:01;;;;;;;0.20;0.20;;;1.40;99.90;;;;;;5144918;27;20039;-72
2022/11/20 05:10:27;;;;;;;0.20;0.20;;;1.40;99.90;;;;;;5153376;27;20114;-71
2022/11/20 05:12:53;;;;;;;0.20;0.20;;;1.40;99.90;;;;;;5152136;27;20038;-72
2022/11/20 05:15:19;;;;;;;0.20;0.20;;;1.40;99.90;;;;;;5153847;27;20042;-71
2022/11/20 05:17:52;;;;;;;0.20;0.20;;;1.30;99.90;;;;;;5152772;27;20039;-72
2022/11/20 05:20:18;;;;;;;0.20;0.20;;;1.40;99.90;;;;;;5153730;27;20043;-72
2022/11/20 05:22:44;;;;;;;0.20;0.20;;;1.40;99.90;;;;;;5132596;27;20043;-72
2022/11/20 05:25:11;;;;;;;0.20;0.20;;;1.40;99.90;;;;;;5152992;27;20054;-72
2022/11/20 05:27:36;;;;;;;0.20;0.20;;;1.40;99.90;;;;;;5152316;27;20046;-72
2022/11/20 05:30:03;;;;;;;0.20;0.20;;;1.40;99.90;;;;;;5151868;27;20386;-72
2022/11/20 05:32:29;;;;;;;0.20;0.20;;;1.40;99.90;;;;;;5145017;27;20047;-72
2022/11/20 05:34:54;;;;;;;0.20;0.20;;;1.40;99.90;;;;;;5134239;27;20050;-71
2022/11/20 05:37:20;;;;;;;0.20;0.20;;;1.40;99.90;;;;;;5131965;27;20092;-72
2022/11/20 05:39:46;;;;;;;0.20;0.20;;;1.40;99.90;;;;;;5152419;27;20039;-72
2022/11/20 05:44:59;;;;;;;0.20;0.20;;;1.40;99.90;;;;;;5125184;27;20039;-72
2022/11/20 05:47:31;;;;;;;0.20;0.20;;;1.40;99.90;;;;;;5145083;27;20046;-71
2022/11/20 05:49:57;;;;;;;0.20;0.20;;;1.40;99.90;;;;;;5139336;27;20475;-71
2022/11/20 05:52:23;;;;;;;0.20;0.20;;;1.40;99.90;;;;;;5131847;27;20064;-71
2022/11/20 05:54:48;;;;;;;0.20;0.20;;;1.40;99.90;;;;;;5148935;27;20051;-71
2022/11/20 05:57:14;;;;;;;0.20;0.20;;;1.40;99.90;;;;;;5127178;27;20493;-72
2022/11/20 05:59:40;;;;;;;0.20;0.20;;;1.40;99.90;;;;;;5152794;27;20433;-72
2022/11/20 06:02:05;;;;;;;0.20;0.20;;;1.40;99.90;;;;;;5132849;27;20050;-71
2022/11/20 06:04:31;;;;;;;0.20;0.20;;;1.40;99.90;;;;;;5133373;27;20042;-72
2022/11/20 06:06:56;;;;;;;0.20;0.20;;;1.40;99.90;;;;;;5132786;27;20043;-72
2022/11/20 06:09:22;;;;;;;0.20;0.20;;;1.40;99.90;;;;;;5132579;27;20043;-71
2022/11/20 06:11:47;;;;;;;0.20;0.20;;;1.40;99.90;;;;;;5144128;27;20039;-71
2022/11/20 06:14:13;;;;;;;0.20;0.20;;;1.40;99.90;;;;;;5129876;27;20049;-72
2022/11/20 06:16:39;;;;;;;0.20;0.20;;;1.40;99.90;;;;;;5137784;27;20030;-72
2022/11/20 06:19:04;;;;;;;0.20;0.20;;;1.40;99.90;;;;;;5151243;27;20067;-71
2022/11/20 06:21:30;;;;;;;0.20;0.20;;;1.40;99.90;;;;;;5149751;27;20398;-71
2022/11/20 06:23:55;;;;;;;0.20;0.20;;;1.40;99.90;;;;;;5152216;27;20076;-72
2022/11/20 06:26:23;;;;;;;0.20;0.20;;;1.40;99.90;;;;;;5150879;27;20043;-71
2022/11/20 06:28:50;;;;;;;0.20;0.20;;;2.60;99.90;;;;;;5148862;27;20073;-72
2022/11/20 06:31:18;;;;;;;0.20;0.20;;;1.50;99.90;;;;;;5152149;27;20536;-72
2022/11/20 06:33:45;;;;;;;0.20;0.20;;;1.40;99.90;;;;;;5134361;27;20074;-71
2022/11/20 06:36:12;;;;;;;0.20;0.20;;;1.50;99.90;;;;;;5135059;27;20053;-72
2022/11/20 06:38:38;;;;;;;0.20;0.20;;;1.40;99.90;;;;;;5151899;27;20055;-72
2022/11/20 06:41:06;;;;;;;0.20;0.20;;;1.50;99.90;;;;;;5130350;27;20103;-72
2022/11/20 06:43:32;;;;;;;0.10;0.10;;;1.50;99.90;;;;;;5146887;27;20047;-72
2022/11/20 06:45:58;;;;;;;0.20;0.20;;;1.40;99.90;;;;;;5152253;27;20035;-72
2022/11/20 06:48:27;;;;;;;0.15;0.15;;;1.50;99.90;;;;;;5149424;27;20197;-71
2022/11/20 06:50:52;;;;;;;0.20;0.20;;;1.40;99.90;;;;;;5151243;27;20049;-71
2022/11/20 06:53:18;;;;;;;0.20;0.20;;;1.40;99.90;;;;;;5133217;27;20046;-71
2022/11/20 06:55:48;;;;;;;0.20;0.20;;;1.70;99.90;;;;;;5152171;27;20094;-71
2022/11/20 06:58:15;;;;;;;0.20;0.20;;;1.50;99.90;;;;;;5135184;27;20092;-72
2022/11/20 07:00:41;;;;;;;0.20;0.20;;;1.50;99.90;;;;;;5152193;27;20085;-72
2022/11/20 07:03:08;;;;;;;0.10;0.10;;;1.50;99.90;;;;;;5150974;27;20046;-72
2022/11/20 07:05:35;;;;;;;0.20;0.20;;;1.50;99.90;;;;;;5138797;27;20657;-72
2022/11/20 07:08:02;;;;;;;0.20;0.20;;;1.50;99.90;;;;;;5138319;27;20122;-71
2022/11/20 07:10:27;;;;;;;0.20;0.20;;;1.50;99.90;;;;;;5129447;27;20085;-72
2022/11/20 07:12:54;;;;;;;0.20;0.20;;;1.50;99.90;;;;;;5147743;27;20496;-72
2022/11/20 07:15:21;;;;;;;0.20;0.20;;;1.60;99.90;;;;;;5125559;27;20129;-72
2022/11/20 07:17:47;;;;;;;0.20;0.20;;;1.50;99.90;;;;;;5145914;27;20126;-72
2022/11/20 07:20:13;;;;;;;0.20;0.20;;;1.60;99.90;;;;;;5148405;27;20114;-71
2022/11/20 07:22:39;;;;;;;0.15;0.15;;;1.60;99.90;;;;;;5149309;27;20046;-71
2022/11/20 07:25:05;;;;;;;0.20;0.20;;;1.60;99.90;;;;;;5144252;27;20032;-71
2022/11/20 07:27:31;;;;;;;0.20;0.20;;;1.60;99.90;;;;;;5145540;27;20118;-72
2022/11/20 07:29:57;;;;;;;0.20;0.20;;;1.60;99.90;;;;;;5146201;27;20110;-71
2022/11/20 07:32:23;;;;;;;0.20;0.20;;;1.60;99.90;;;;;;5128595;27;20043;-71
2022/11/20 07:34:49;;;;;;;0.20;0.20;;;1.60;99.90;;;;;;5149607;27;20076;-71
2022/11/20 07:37:14;;;;;;;0.20;0.20;;;1.60;99.90;;;;;;5147526;27;20073;-71
2022/11/20 07:39:40;;;;;;;0.20;0.20;;;1.70;99.90;;;;;;5148019;27;20055;-72
2022/11/20 07:42:07;;;;;;;0.13;0.13;;;1.70;99.90;;;;;;5142136;27;20402;-71
2022/11/20 07:44:33;;;;;;;0.20;0.20;;;1.70;99.90;;;;;;5126492;27;20039;-71
2022/11/20 07:46:58;;;;;;;0.20;0.20;;;1.70;99.90;;;;;;5141094;27;20042;-71
2022/11/20 07:49:24;;;;;;;0.20;0.20;;;1.70;99.90;;;;;;5147003;27;20039;-71
2022/11/20 07:51:51;;;;;;;0.20;0.20;;;1.70;99.90;;;;;;5149020;27;20039;-74
2022/11/20 07:54:16;;;;;;;0.20;0.20;;;1.70;99.90;;;;;;5140804;27;20042;-71
2022/11/20 07:56:42;;;;;;;0.20;0.20;;;1.70;99.90;;;;;;5143178;27;20034;-71
2022/11/20 07:59:08;;;;;;;0.20;0.20;;;1.70;99.90;;;;;;5147299;27;20058;-71
2022/11/20 08:01:33;;;;;;;0.20;0.20;;;1.70;99.90;;;;;;5147403;27;20151;-71
2022/11/20 08:03:59;;;;;;;0.20;0.20;;;1.70;99.90;;;;;;5130296;27;20057;-71
2022/11/20 08:06:24;;;;;;;0.20;0.20;;;1.70;99.90;;;;;;5147622;27;20043;-71
2022/11/20 08:08:51;;;;;;;0.20;0.20;;;1.70;99.90;;;;;;5145325;27;20054;-71
2022/11/20 08:14:13;;;;;;;0.20;0.20;;;1.70;99.90;;;;;;5126741;27;20042;-72
2022/11/20 08:16:40;;;;;;;0.20;0.20;;;1.70;99.90;;;;;;5151850;27;20156;-71
2022/11/20 08:19:06;;;;;;;0.10;0.10;;;1.80;99.90;;;;;;5152188;27;20039;-73
2022/11/20 08:21:31;;;;;;;0.17;0.17;;;1.80;99.90;;;;;;5144725;27;20039;-71
2022/11/20 08:23:58;;;;;;;0.20;0.20;;;1.80;99.90;;;;;;5147802;27;20070;-72
2022/11/20 08:26:24;;;;;;;0.20;0.20;;;1.80;99.90;;;;;;5151606;27;20114;-72
2022/11/20 08:28:54;;;;;;;0.20;0.20;;;1.80;99.90;;;;;;5146826;27;20589;-72
2022/11/20 08:31:20;;;;;;;0.20;0.20;;;1.90;99.90;;;;;;5144070;27;20046;-72
2022/11/20 08:33:46;;;;;;;0.20;0.20;;;1.90;99.90;;;;;;5141296;27;20164;-72
2022/11/20 08:36:11;;;;;;;0.20;0.20;;;1.90;99.90;;;;;;5143436;27;20129;-72
2022/11/20 08:38:37;;;;;;;0.17;0.17;;;1.90;99.90;;;;;;5149997;27;20042;-73
2022/11/20 08:43:49;;;;;;;0.20;0.20;;;2.00;99.90;;;;;;5130871;27;20046;-71
2022/11/20 08:46:15;;;;;;;0.20;0.20;;;2.00;99.90;;;;;;5131649;27;20045;-72
2022/11/20 08:48:40;;;;;;;0.20;0.20;;;2.00;99.90;;;;;;5146864;27;20664;-72
2022/11/20 08:51:06;;;;;;;0.20;0.20;;;2.10;99.90;;;;;;5145142;27;20031;-71
2022/11/20 08:53:32;;;;;;;0.20;0.20;;;2.10;99.90;;;;;;5149122;27;20474;-71
2022/11/20 08:55:58;;;;;;;0.20;0.20;;;2.10;99.90;;;;;;5150890;27;20442;-71
2022/11/20 08:58:24;;;;;;;0.20;0.20;;;2.10;99.90;;;;;;5132160;27;20074;-72
2022/11/20 09:00:50;;;;;;;0.20;0.20;;;2.10;99.90;;;;;;5149488;27;20056;-72
2022/11/20 09:03:16;;;;;;;0.20;0.20;;;2.20;99.90;;;;;;5128203;27;20043;-71
2022/11/20 09:05:42;;;;;;;0.10;0.10;;;2.20;99.90;;;;;;5145893;27;20385;-72
2022/11/20 09:08:08;;;;;;;0.20;0.20;;;2.20;99.90;;;;;;5148106;27;20509;-71
2022/11/20 09:10:34;;;;;;;0.20;0.20;;;2.20;99.90;;;;;;5129235;27;20035;-71
2022/11/20 09:12:59;;;;;;;0.20;0.20;;;2.20;99.90;;;;;;5143849;27;20595;-72
2022/11/20 09:15:26;;;;;;;0.20;0.20;;;2.20;99.90;;;;;;5129947;27;20231;-72
2022/11/20 09:17:56;;;;;;;0.20;0.20;;;2.20;99.90;;;;;;5139482;27;20134;-71
2022/11/20 09:20:22;;;;;;;0.20;0.20;;;2.20;99.90;;;;;;5148540;27;20080;-71
2022/11/20 09:22:48;;;;;;;0.20;0.20;;;2.20;99.90;;;;;;5145890;27;20050;-71
2022/11/20 09:25:14;;;;;;;0.20;0.20;;;2.30;99.90;;;;;;5146048;27;20047;-71
2022/11/20 09:27:41;;;;;;;0.20;0.20;;;2.30;99.90;;;;;;5139487;27;20512;-71
2022/11/20 09:30:07;;;;;;;0.20;0.20;;;2.30;99.90;;;;;;5149863;27;20067;-72
2022/11/20 09:32:33;;;;;;;0.20;0.20;;;2.30;99.90;;;;;;5149891;27;20156;-71
2022/11/20 09:34:59;;;;;;;0.20;0.20;;;2.60;99.90;;;;;;5144103;27;20065;-71
2022/11/20 09:37:24;;;;;;;0.20;0.20;;;2.20;99.90;;;;;;5150348;27;20043;-73
2022/11/20 09:39:50;;;;;;;0.20;0.20;;;2.20;99.90;;;;;;5148256;27;20608;-71
2022/11/20 09:42:27;;;;;;;0.20;0.20;;;2.20;99.90;;;;;;5143690;27;20057;-71
2022/11/20 09:45:05;;;;;;;0.20;0.20;;;2.20;99.90;;;;;;5139358;27;20035;-71
2022/11/20 09:47:45;;;;;;;0.20;0.20;;;2.20;99.90;;;;;;5129789;27;20051;-71
2022/11/20 09:50:35;;;;;;;0.20;0.20;;;2.20;99.90;;;;;;5132066;27;20371;-72
2022/11/20 09:53:16;;;;;;;0.20;0.20;;;2.20;99.90;;;;;;5129777;27;20054;-72
2022/11/20 09:55:42;;;;;;;0.20;0.20;;;2.20;99.90;;;;;;5130411;27;20154;-72
2022/11/20 09:58:20;;;;;;;0.20;0.20;;;2.20;99.90;;;;;;5147765;27;20122;-72
2022/11/20 10:00:46;;;;;;;0.20;0.20;;;2.20;99.90;;;;;;5147463;27;20035;-72
2022/11/20 10:03:24;;;;;;;0.20;0.20;;;2.20;99.90;;;;;;5146677;27;20065;-72
2022/11/20 10:05:54;;;;;;;0.20;0.20;;;2.20;99.90;;;;;;5143930;27;20272;-72
2022/11/20 10:08:24;;;;;;;0.20;0.20;;;2.20;99.90;;;;;;5143553;27;20043;-72
2022/11/20 10:10:58;;;;;;;0.20;0.20;;;2.20;99.90;;;;;;5149435;27;20485;-72
2022/11/20 10:13:46;;;;;;;0.20;0.20;;;2.30;99.90;;;;;;5144450;27;20103;-72
2022/11/20 10:16:44;;;;;;;0.20;0.20;;;2.30;99.90;;;;;;5142302;27;20043;-72
2022/11/20 10:19:31;;;;;;;0.10;0.10;;;2.30;99.90;;;;;;5144404;27;20053;-72
2022/11/20 10:22:27;;;;;;;0.20;0.20;;;2.40;99.90;;;;;;5143468;27;20034;-72
2022/11/20 10:25:17;;;;;;;0.15;0.15;;;2.50;99.90;;;;;;5140410;27;20073;-72
2022/11/20 10:27:52;;;;;;;0.20;0.20;;;2.50;99.90;;;;;;5129314;27;20039;-72
2022/11/20 10:30:21;;;;;;;0.20;0.20;;;2.50;99.90;;;;;;5149556;27;20060;-72
2022/11/20 10:32:52;;;;;;;0.20;0.20;;;2.50;99.90;;;;;;5145026;27;20027;-72
2022/11/20 10:35:38;;;;;;;0.20;0.20;;;2.60;99.90;;;;;;5119738;27;20046;-72
2022/11/20 10:38:18;;;;;;;0.20;0.20;;;2.60;99.90;;;;;;5123184;27;20058;-71
2022/11/20 10:41:24;;;;;;;0.20;0.20;;;2.60;99.90;;;;;;5147512;27;20111;-72
2022/11/20 10:43:40;;;;;;;0.10;0.10;;;2.60;99.90;;;;;;5143484;27;20047;-72
2022/11/20 10:46:22;;;;;;;0.20;0.20;;;2.60;99.90;;;;;;5143478;27;20066;-72
2022/11/20 10:48:49;;;;;;;0.20;0.20;;;2.70;99.90;;;;;;5145427;27;20447;-72
2022/11/20 10:51:36;;;;;;;0.10;0.10;;;2.80;99.90;;;;;;5145118;27;20047;-73
2022/11/20 10:54:45;;;;;;;0.20;0.20;;;3.00;99.90;;;;;;5119369;27;20138;-72
2022/11/20 10:57:26;;;;;;;0.20;0.20;;;3.20;99.90;;;;;;5134216;27;20567;-72
2022/11/20 11:00:01;;;;;;;0.20;0.20;;;3.30;99.90;;;;;;5140840;27;20100;-72
2022/11/20 11:02:44;;;;;;;0.20;0.20;;;3.30;99.90;;;;;;5140160;27;20231;-71
2022/11/20 11:05:40;;;;;;;0.20;0.20;;;3.30;99.90;;;;;;5122635;27;20062;-72
2022/11/20 11:08:16;;;;;;;0.20;0.20;;;3.30;99.90;;;;;;5127571;27;20427;-72
2022/11/20 11:11:02;;;;;;;0.20;0.20;;;3.30;99.90;;;;;;5140974;27;20034;-72
2022/11/20 11:13:31;;;;;;;0.20;0.20;;;3.30;99.90;;;;;;5129486;27;20049;-72
2022/11/20 11:15:57;;;;;;;0.20;0.20;;;3.30;99.90;;;;;;5128750;27;20083;-72
2022/11/20 11:18:27;;;;;;;0.20;0.20;;;3.40;99.90;;;;;;5127885;27;20142;-72
2022/11/20 11:20:54;;;;;;;0.20;0.20;;;3.40;99.90;;;;;;5143106;27;20039;-72
2022/11/20 11:23:28;;;;;;;0.20;0.20;;;3.50;99.90;;;;;;5147012;27;20447;-71
2022/11/20 11:26:00;;;;;;;0.20;0.20;;;3.40;99.90;;;;;;5149162;27;20071;-72
2022/11/20 11:28:27;;;;;;;0.20;0.20;;;3.50;99.90;;;;;;5146520;27;20039;-72
2022/11/20 11:30:54;;;;;;;0.20;0.20;;;3.50;99.90;;;;;;5147552;27;20035;-72
2022/11/20 11:33:21;;;;;;;0.20;0.20;;;3.50;99.90;;;;;;5139261;27;20031;-72
2022/11/20 11:35:58;;;;;;;0.20;0.20;;;3.40;99.90;;;;;;5125131;27;20091;-72
2022/11/20 11:38:42;;;;;;;0.20;0.20;;;3.40;99.90;;;;;;5140401;27;20605;-71
2022/11/20 11:41:22;;;;;;;0.17;0.17;;;3.60;99.90;;;;;;5119414;27;20091;-72
2022/11/20 11:46:41;;;;;;;0.20;0.20;;;3.50;99.90;;;;;;5140268;27;20067;-72
2022/11/20 11:49:09;;;;;;;0.10;0.10;;;3.60;99.90;;;;;;5140059;27;20235;-72
2022/11/20 11:51:45;;;;;;;0.20;0.20;;;3.60;99.90;;;;;;5127674;27;20073;-72
2022/11/20 11:54:22;;;;;;;0.20;0.20;;;3.60;99.90;;;;;;5142698;27;20038;-72
2022/11/20 11:56:49;;;;;;;0.20;0.20;;;3.60;99.90;;;;;;5147316;27;20038;-72
2022/11/20 11:59:28;;;;;;;0.20;0.20;;;3.70;99.90;;;;;;5141327;27;20043;-72
2022/11/20 12:02:03;;;;;;;0.10;0.10;;;3.70;99.90;;;;;;5151129;27;20042;-72
2022/11/20 12:04:43;;;;;;;0.10;0.10;;;3.70;99.90;;;;;;5153165;27;20035;-71
2022/11/20 12:07:12;;;;;;;0.20;0.20;;;3.70;99.90;;;;;;5149817;27;20037;-72
2022/11/20 12:09:45;;;;;;;0.20;0.20;;;3.60;99.90;;;;;;5148517;27;20385;-72
2022/11/20 12:12:27;;;;;;;0.10;0.10;;;3.60;99.90;;;;;;5150017;27;20507;-72
2022/11/20 12:14:54;;;;;;;0.17;0.17;;;3.50;99.90;;;;;;5151946;27;20039;-72
2022/11/20 12:17:20;;;;;;;0.20;0.20;;;3.50;99.90;;;;;;5150875;27;20049;-72
2022/11/20 12:19:46;;;;;;;0.20;0.20;;;3.60;99.90;;;;;;5133030;27;20035;-72
2022/11/20 12:22:50;;;;;;;0.20;0.20;;;3.70;99.90;;;;;;5132218;27;20050;-72
2022/11/20 12:25:24;;;;;;;0.20;0.20;;;3.80;99.90;;;;;;5066426;27;20061;-72
2022/11/20 12:28:15;;;;;;;0.20;0.20;;;3.80;99.90;;;;;;5125727;27;20506;-72
2022/11/20 12:31:01;;;;;;;0.20;0.20;;;3.80;99.90;;;;;;5126474;27;20065;-72
2022/11/20 12:33:35;;;;;;;0.20;0.20;;;3.80;99.90;;;;;;5143700;27;20114;-72
2022/11/20 12:36:12;;;;;;;0.20;0.20;;;3.80;99.90;;;;;;5142369;27;20043;-72
2022/11/20 12:39:05;;;;;;;0.13;0.13;;;3.90;99.90;;;;;;5143291;27;20469;-72
2022/11/20 12:45:28;;;;;;;0.10;0.10;;;4.00;99.90;;;;;;5143403;27;20485;-72
2022/11/20 12:48:14;;;;;;;0.20;0.20;;;3.90;99.90;;;;;;5139720;27;20071;-71
2022/11/20 12:50:49;;;;;;;0.20;0.20;;;3.90;99.90;;;;;;5147311;27;20639;-71
2022/11/20 12:53:43;;;;;;;0.13;0.13;;;3.80;99.90;;;;;;5137663;27;20039;-71
2022/11/20 12:56:36;;;;;;;0.20;0.20;;;3.80;99.90;;;;;;5145644;27;20038;-71
2022/11/20 12:59:28;;;;;;;0.20;0.20;;;3.70;99.90;;;;;;5140544;27;20035;-70
2022/11/20 13:02:16;;;;;;;0.20;0.20;;;3.70;99.90;;;;;;5149260;27;20076;-71
2022/11/20 13:05:00;;;;;;;0.20;0.20;;;3.00;99.90;;;;;;5150492;27;20050;-71
2022/11/20 13:07:27;;;;;;;0.20;0.20;;;3.50;99.90;;;;;;5151591;27;20046;-70
2022/11/20 13:09:54;;;;;;;0.20;0.20;;;3.50;99.90;;;;;;5130547;27;20046;-71
2022/11/20 13:12:31;;;;;;;0.20;0.20;;;3.60;99.90;;;;;;5131412;27;20054;-71
2022/11/20 13:15:02;;;;;;;0.20;0.20;;;3.60;99.90;;;;;;5150888;27;20045;-71
2022/11/20 13:17:35;;;;;;;0.15;0.15;;;3.60;99.90;;;;;;5132017;27;20398;-71
2022/11/20 13:20:02;;;;;;;0.20;0.20;;;3.60;99.90;;;;;;5150985;27;20031;-71
2022/11/20 13:22:47;;;;;;;0.20;0.20;;;3.80;99.90;;;;;;5144377;27;20122;-71
2022/11/20 13:25:42;;;;;;;0.10;0.10;;;3.70;99.90;;;;;;5139960;27;20418;-71
2022/11/20 13:28:10;;;;;;;0.20;0.20;;;3.60;99.90;;;;;;5101355;27;20066;-71